Time;durP1;ratioP1;P1;durP2;ratioP2;P2;SDS_P1;SDS_P2;PMS_P1;PMS_P2;Temp;Humidity;BMP_temperature;BMP_pressure;BME280_temperature;BME280_humidity;BME280_pressure;Samples;Min_cycle;Max_cycle;Signal;HPM_P1;HPM_P2
2024/03/29 00:00:23;;;;;;;4.70;2.03;;;4.60;79.60;;;;;;5005642;28;20190;-80
2024/03/29 00:03:13;;;;;;;4.72;2.00;;;4.60;81.10;;;;;;5022716;28;20049;-83
2024/03/29 00:06:02;;;;;;;4.93;2.50;;;4.60;81.00;;;;;;5014717;28;20051;-81
2024/03/29 00:08:50;;;;;;;4.78;2.13;;;4.50;87.30;;;;;;5007479;28;20064;-81
2024/03/29 00:11:38;;;;;;;4.72;2.17;;;4.40;92.90;;;;;;5005280;28;20057;-83
2024/03/29 00:14:26;;;;;;;5.15;1.75;;;4.30;94.50;;;;;;5015103;28;20082;-82
2024/03/29 00:17:12;;;;;;;4.68;1.80;;;4.10;98.30;;;;;;5011842;28;20144;-81
2024/03/29 00:19:59;;;;;;;3.80;2.15;;;4.00;99.90;;;;;;5007513;28;20506;-81
2024/03/29 00:22:46;;;;;;;3.70;2.20;;;3.90;99.90;;;;;;5014855;28;20072;-82
2024/03/29 00:25:32;;;;;;;6.65;2.22;;;3.90;99.90;;;;;;5014766;28;20103;-83
2024/03/29 00:28:19;;;;;;;4.00;2.10;;;3.90;99.90;;;;;;5014526;28;20098;-85
2024/03/29 00:31:05;;;;;;;6.00;1.90;;;3.80;99.90;;;;;;5012678;28;20045;-81
2024/03/29 00:33:53;;;;;;;5.55;2.63;;;3.90;99.90;;;;;;5023479;28;20369;-81
2024/03/29 00:36:39;;;;;;;2.40;1.73;;;4.00;99.90;;;;;;5028297;28;20524;-83
2024/03/29 00:39:25;;;;;;;3.70;1.80;;;4.10;99.90;;;;;;5023892;28;20098;-79
2024/03/29 00:42:15;;;;;;;1.30;1.20;;;4.10;99.90;;;;;;5016932;28;20049;-81
2024/03/29 00:45:02;;;;;;;3.40;1.60;;;4.10;99.90;;;;;;5024651;28;20042;-83
2024/03/29 00:47:49;;;;;;;5.35;2.08;;;4.30;99.90;;;;;;5012378;28;20045;-82
2024/03/29 00:50:37;;;;;;;5.40;1.75;;;4.30;99.90;;;;;;5014625;28;20083;-84
2024/03/29 00:53:23;;;;;;;2.55;1.77;;;4.20;99.90;;;;;;5004514;28;20137;-83
2024/03/29 00:56:10;;;;;;;3.17;1.70;;;4.20;99.90;;;;;;5016705;28;20050;-83
2024/03/29 00:59:02;;;;;;;6.45;1.58;;;4.10;99.90;;;;;;5017236;28;20477;-83
2024/03/29 01:01:50;;;;;;;1.52;1.42;;;4.00;99.90;;;;;;5016105;28;20045;-82
2024/03/29 01:04:37;;;;;;;4.72;2.10;;;3.90;99.90;;;;;;5012607;28;20045;-82
2024/03/29 01:07:24;;;;;;;3.20;1.45;;;3.90;99.90;;;;;;5012088;28;20041;-84
2024/03/29 01:10:11;;;;;;;2.42;1.45;;;3.80;99.90;;;;;;5003786;28;20084;-81
2024/03/29 01:12:58;;;;;;;1.50;1.25;;;3.60;99.90;;;;;;5021316;28;20101;-83
2024/03/29 01:15:47;;;;;;;2.28;1.58;;;3.70;99.90;;;;;;5029424;28;20056;-81
2024/03/29 01:18:36;;;;;;;1.90;1.40;;;3.70;99.90;;;;;;5021691;28;20045;-84
2024/03/29 01:21:23;;;;;;;3.50;2.00;;;3.80;99.90;;;;;;5006542;28;20056;-83
2024/03/29 01:24:10;;;;;;;2.13;1.80;;;3.80;99.90;;;;;;5014562;28;20041;-79
2024/03/29 01:26:58;;;;;;;3.47;1.80;;;3.80;99.90;;;;;;5006356;28;20050;-83
2024/03/29 01:29:45;;;;;;;2.28;1.80;;;3.80;99.90;;;;;;5014876;28;20071;-83
2024/03/29 01:32:31;;;;;;;3.28;1.98;;;3.70;99.90;;;;;;5011006;28;20481;-85
2024/03/29 01:35:18;;;;;;;3.75;1.92;;;3.70;99.90;;;;;;5014812;28;20046;-83
2024/03/29 01:38:07;;;;;;;1.98;1.75;;;3.60;99.90;;;;;;5015994;28;20057;-84
2024/03/29 01:40:53;;;;;;;1.70;1.60;;;3.60;99.90;;;;;;5009682;28;20045;-84
2024/03/29 01:43:40;;;;;;;3.28;2.00;;;3.60;99.90;;;;;;5016009;28;20056;-82
2024/03/29 01:46:27;;;;;;;2.53;1.60;;;3.60;99.90;;;;;;5014907;28;20045;-84
2024/03/29 01:49:14;;;;;;;2.22;1.75;;;3.70;99.90;;;;;;5016283;28;20498;-82
2024/03/29 01:52:03;;;;;;;2.38;1.90;;;3.70;99.90;;;;;;5010601;28;20056;-83
2024/03/29 01:54:50;;;;;;;2.53;1.67;;;3.80;99.90;;;;;;5013198;28;20439;-83
2024/03/29 01:57:37;;;;;;;4.15;1.38;;;4.00;99.90;;;;;;5030829;28;20120;-82
2024/03/29 02:00:24;;;;;;;2.05;1.45;;;4.10;99.90;;;;;;5026159;28;20103;-82
2024/03/29 02:03:14;;;;;;;3.70;1.70;;;4.30;99.90;;;;;;5016048;28;20096;-78
2024/03/29 02:06:01;;;;;;;2.22;1.55;;;4.40;99.90;;;;;;5026677;28;20067;-83
2024/03/29 02:08:53;;;;;;;4.35;2.33;;;4.40;99.90;;;;;;5018597;28;20038;-84
2024/03/29 02:11:40;;;;;;;3.17;1.60;;;4.50;99.90;;;;;;5015616;28;20060;-86
2024/03/29 02:14:28;;;;;;;1.33;1.20;;;4.50;99.90;;;;;;5017846;28;20064;-84
2024/03/29 02:17:14;;;;;;;2.20;1.40;;;4.60;99.90;;;;;;5016336;28;20041;-83
2024/03/29 02:20:01;;;;;;;1.90;1.60;;;4.60;99.90;;;;;;5012196;28;20045;-82
2024/03/29 02:22:56;;;;;;;3.10;1.77;;;4.60;99.90;;;;;;5004161;28;20049;-84
2024/03/29 02:25:42;;;;;;;2.88;1.40;;;4.60;99.90;;;;;;5004833;28;20041;-83
2024/03/29 02:28:30;;;;;;;2.83;1.30;;;4.60;99.90;;;;;;5017243;28;20056;-84
2024/03/29 02:31:16;;;;;;;4.05;1.30;;;4.60;99.90;;;;;;5016254;28;20067;-84
2024/03/29 02:34:03;;;;;;;1.48;1.38;;;4.60;99.90;;;;;;4990137;28;20049;-85
2024/03/29 02:36:50;;;;;;;2.83;1.67;;;4.60;99.90;;;;;;5016942;28;20115;-80
2024/03/29 02:39:36;;;;;;;3.72;1.38;;;4.60;99.90;;;;;;5024679;28;20133;-83
2024/03/29 02:42:23;;;;;;;2.72;1.50;;;4.60;99.90;;;;;;5006248;28;20069;-84
2024/03/29 02:45:09;;;;;;;1.65;1.30;;;4.60;99.90;;;;;;5002950;28;20045;-84
2024/03/29 02:47:57;;;;;;;1.17;1.05;;;4.60;99.90;;;;;;5023934;28;20064;-82
2024/03/29 02:50:44;;;;;;;2.50;1.42;;;4.50;99.90;;;;;;4994840;28;20042;-82
2024/03/29 02:53:30;;;;;;;3.95;1.33;;;4.40;99.90;;;;;;5015034;28;20049;-84
2024/03/29 02:56:21;;;;;;;2.20;1.50;;;4.30;99.90;;;;;;5016627;28;20051;-83
2024/03/29 02:59:07;;;;;;;1.60;1.38;;;4.30;99.90;;;;;;5015948;28;20116;-84
2024/03/29 03:01:53;;;;;;;1.50;1.40;;;4.20;99.90;;;;;;4989668;28;20041;-83
2024/03/29 03:04:40;;;;;;;1.50;1.40;;;4.20;99.90;;;;;;4999955;28;20042;-80
2024/03/29 03:13:36;;;;;;;2.05;1.50;;;4.30;99.90;;;;;;5034354;28;20085;-83
2024/03/29 03:16:23;;;;;;;2.13;1.60;;;4.20;99.90;;;;;;5017401;28;20049;-80
2024/03/29 03:19:10;;;;;;;3.05;1.90;;;4.20;99.90;;;;;;5026830;28;20080;-79
2024/03/29 03:21:57;;;;;;;3.05;1.40;;;4.20;99.90;;;;;;5030631;28;20053;-80
2024/03/29 03:24:44;;;;;;;4.70;2.40;;;4.30;99.90;;;;;;5032743;28;20037;-79
2024/03/29 03:27:31;;;;;;;5.63;2.08;;;4.40;99.90;;;;;;5034096;28;20046;-79
2024/03/29 03:30:17;;;;;;;5.00;2.45;;;4.50;99.90;;;;;;5025770;28;20052;-85
2024/03/29 03:33:09;;;;;;;4.70;2.08;;;4.60;99.90;;;;;;5010995;28;20049;-84
2024/03/29 03:35:58;;;;;;;5.00;2.08;;;4.70;99.90;;;;;;5022547;28;20409;-81
2024/03/29 03:38:45;;;;;;;2.15;1.60;;;4.80;99.90;;;;;;5018748;28;20041;-82
2024/03/29 03:41:31;;;;;;;2.35;1.50;;;5.00;99.90;;;;;;5020814;28;20096;-80
2024/03/29 03:44:18;;;;;;;4.45;1.42;;;5.10;99.90;;;;;;5025542;28;20059;-80
2024/03/29 03:47:05;;;;;;;1.90;1.50;;;5.20;99.90;;;;;;5022181;28;20064;-80
2024/03/29 03:49:53;;;;;;;1.58;1.33;;;5.20;99.90;;;;;;5020494;28;20105;-80
2024/03/29 03:52:40;;;;;;;2.38;1.40;;;5.20;99.90;;;;;;5018323;28;20045;-83
2024/03/29 03:55:28;;;;;;;2.20;1.30;;;5.30;99.90;;;;;;5021639;28;20050;-84
2024/03/29 03:58:15;;;;;;;1.35;1.25;;;5.30;99.90;;;;;;5031051;28;20025;-82
2024/03/29 04:01:06;;;;;;;2.28;1.42;;;5.30;99.90;;;;;;5025893;28;20033;-81
2024/03/29 04:03:52;;;;;;;1.80;1.60;;;5.30;99.90;;;;;;5019751;28;20672;-82
2024/03/29 04:06:40;;;;;;;1.35;1.20;;;5.40;99.90;;;;;;5038605;28;20033;-82
2024/03/29 04:09:27;;;;;;;2.63;1.00;;;5.40;99.90;;;;;;5039148;28;20100;-80
2024/03/29 04:12:13;;;;;;;2.20;1.48;;;5.40;99.90;;;;;;5031879;28;20045;-84
2024/03/29 04:15:03;;;;;;;3.17;1.40;;;5.50;99.90;;;;;;5033542;28;20025;-83
2024/03/29 04:17:49;;;;;;;3.78;1.52;;;5.50;99.90;;;;;;5031473;28;20041;-82
2024/03/29 04:20:35;;;;;;;3.90;1.48;;;5.30;99.90;;;;;;5030918;28;20043;-83
2024/03/29 04:23:22;;;;;;;2.25;1.35;;;5.00;99.90;;;;;;5018031;28;20105;-79
2024/03/29 04:26:09;;;;;;;1.65;1.42;;;4.90;99.90;;;;;;5030844;28;20049;-83
2024/03/29 04:28:56;;;;;;;2.85;1.67;;;4.80;99.90;;;;;;5029550;28;20045;-81
2024/03/29 04:31:46;;;;;;;2.42;1.42;;;4.90;99.90;;;;;;5030462;28;20047;-85
2024/03/29 04:34:34;;;;;;;2.60;1.38;;;4.90;99.90;;;;;;5018498;28;20042;-85
2024/03/29 04:37:21;;;;;;;2.75;1.30;;;5.00;99.90;;;;;;5029965;28;20042;-83
2024/03/29 04:40:08;;;;;;;1.55;1.25;;;5.10;99.90;;;;;;5029938;28;20045;-82
2024/03/29 04:42:55;;;;;;;2.38;1.30;;;5.10;99.90;;;;;;5030167;28;20055;-80
2024/03/29 04:45:46;;;;;;;1.20;1.10;;;5.30;99.90;;;;;;5017593;28;20210;-80
2024/03/29 04:48:34;;;;;;;1.85;1.13;;;5.50;99.90;;;;;;5037287;28;20044;-85
2024/03/29 04:51:21;;;;;;;1.48;1.20;;;5.60;99.90;;;;;;5022964;28;20110;-84
2024/03/29 04:54:09;;;;;;;1.30;1.20;;;5.70;99.90;;;;;;5028518;28;20530;-84
2024/03/29 04:56:56;;;;;;;2.55;1.10;;;5.60;99.90;;;;;;5026768;28;20056;-82
2024/03/29 04:59:43;;;;;;;2.50;1.35;;;5.50;99.90;;;;;;5032337;28;20057;-81
2024/03/29 05:02:30;;;;;;;1.33;1.23;;;5.50;99.90;;;;;;5030278;28;20033;-82
2024/03/29 05:05:17;;;;;;;1.17;1.08;;;5.50;99.90;;;;;;5030479;28;20041;-82
2024/03/29 05:08:04;;;;;;;1.40;1.30;;;5.50;99.90;;;;;;5013188;28;20052;-84
2024/03/29 05:10:52;;;;;;;2.75;1.30;;;5.40;99.90;;;;;;5031417;28;20075;-81
2024/03/29 05:13:40;;;;;;;2.17;1.25;;;5.40;99.90;;;;;;5023469;28;20030;-84
2024/03/29 05:16:27;;;;;;;2.08;1.48;;;5.40;99.90;;;;;;5031929;28;20041;-81
2024/03/29 05:19:14;;;;;;;4.57;1.55;;;5.40;99.90;;;;;;5018095;28;20042;-84
2024/03/29 05:22:00;;;;;;;1.98;1.67;;;5.30;99.90;;;;;;5037489;28;20037;-79
2024/03/29 05:24:47;;;;;;;2.47;1.55;;;5.40;99.90;;;;;;5042008;28;20048;-79
2024/03/29 05:27:34;;;;;;;1.50;1.38;;;5.40;99.90;;;;;;5032613;28;20041;-82
2024/03/29 05:30:24;;;;;;;2.17;1.50;;;5.30;99.90;;;;;;5041020;28;20045;-84
2024/03/29 05:33:12;;;;;;;3.33;1.50;;;5.30;99.90;;;;;;5020640;28;20151;-80
2024/03/29 05:35:58;;;;;;;2.05;1.42;;;5.30;99.90;;;;;;5035878;28;20097;-82
2024/03/29 05:38:47;;;;;;;4.72;1.70;;;5.20;99.90;;;;;;5036804;28;20053;-81
2024/03/29 05:41:33;;;;;;;2.80;2.20;;;5.30;99.90;;;;;;5035883;28;20035;-82
2024/03/29 05:44:21;;;;;;;3.25;2.17;;;5.40;99.90;;;;;;5033466;28;20067;-80
2024/03/29 05:47:07;;;;;;;4.45;2.45;;;5.50;99.90;;;;;;5034003;28;20047;-83
2024/03/29 05:49:55;;;;;;;3.95;1.75;;;5.50;99.90;;;;;;5020807;28;20059;-81
2024/03/29 05:52:41;;;;;;;4.13;1.60;;;5.60;99.90;;;;;;5031564;28;20042;-82
2024/03/29 05:55:28;;;;;;;1.63;1.23;;;5.70;99.90;;;;;;5030362;28;20057;-83
2024/03/29 05:58:20;;;;;;;3.92;1.55;;;5.80;99.90;;;;;;5016050;28;20083;-80
2024/03/29 06:01:06;;;;;;;1.92;1.50;;;5.90;99.90;;;;;;5025489;28;20056;-83
2024/03/29 06:03:54;;;;;;;2.95;1.25;;;6.10;92.90;;;;;;5030074;28;20115;-80
2024/03/29 06:06:40;;;;;;;5.25;1.77;;;6.30;76.90;;;;;;5028854;28;20037;-82
2024/03/29 06:09:27;;;;;;;3.97;1.40;;;6.40;54.60;;;;;;5031961;28;20049;-83
2024/03/29 06:12:14;;;;;;;2.60;1.30;;;6.60;43.70;;;;;;5019658;28;20045;-79
2024/03/29 06:18:07;;;;;;;3.72;2.28;;;7.00;28.20;;;;;;5032412;28;20351;-80
2024/03/29 06:20:54;;;;;;;2.70;1.70;;;7.00;32.50;;;;;;5032158;28;20046;-82
2024/03/29 06:23:40;;;;;;;2.35;1.42;;;7.00;31.60;;;;;;5034457;28;20105;-84
2024/03/29 06:26:27;;;;;;;2.58;1.25;;;7.00;29.50;;;;;;5026940;28;20053;-84
2024/03/29 06:29:15;;;;;;;3.05;1.30;;;7.00;28.40;;;;;;5012816;28;20052;-81
2024/03/29 06:32:02;;;;;;;2.63;1.60;;;7.10;27.30;;;;;;5020735;28;20056;-84
2024/03/29 06:34:49;;;;;;;1.95;1.40;;;7.20;28.80;;;;;;5028332;28;20041;-82
2024/03/29 06:37:35;;;;;;;1.55;1.38;;;7.40;23.10;;;;;;5029473;28;20053;-82
2024/03/29 06:40:21;;;;;;;1.95;1.45;;;7.60;25.00;;;;;;5026761;28;20046;-82
2024/03/29 06:43:08;;;;;;;7.72;1.30;;;7.70;20.40;;;;;;5030659;28;20129;-83
2024/03/29 06:45:58;;;;;;;1.48;1.10;;;7.90;17.90;;;;;;5029031;28;20067;-80
2024/03/29 06:48:45;;;;;;;3.22;1.48;;;8.00;9.90;;;;;;5038595;28;20055;-83
2024/03/29 06:51:32;;;;;;;2.00;1.65;;;8.00;9.80;;;;;;5009785;28;20060;-78
2024/03/29 06:54:22;;;;;;;3.08;1.42;;;8.00;5.60;;;;;;5035378;28;20049;-85
2024/03/29 06:57:09;;;;;;;4.15;1.90;;;8.00;5.30;;;;;;5033797;28;20050;-84
2024/03/29 06:59:56;;;;;;;3.25;1.70;;;8.00;1.50;;;;;;5022838;28;20064;-84
2024/03/29 07:02:43;;;;;;;3.58;1.70;;;8.10;2.70;;;;;;5023779;28;20136;-85
2024/03/29 07:05:33;;;;;;;2.47;1.48;;;8.20;6.90;;;;;;5029251;28;20037;-84
2024/03/29 07:08:25;;;;;;;4.40;1.90;;;8.20;3.00;;;;;;5028749;28;20033;-82
2024/03/29 07:11:14;;;;;;;9.68;4.85;;;8.20;1.80;;;;;;5027491;28;20046;-83
2024/03/29 07:14:01;;;;;;;6.35;3.72;;;8.10;2.10;;;;;;5028695;28;20401;-83
2024/03/29 07:16:49;;;;;;;2.35;1.50;;;8.10;4.00;;;;;;5028288;28;20075;-83
2024/03/29 07:19:37;;;;;;;6.63;2.80;;;8.00;5.10;;;;;;5031014;28;20071;-80
2024/03/29 07:22:27;;;;;;;13.85;7.88;;;7.90;10.30;;;;;;5031086;28;20049;-80
2024/03/29 07:25:15;;;;;;;5.35;2.95;;;7.60;17.90;;;;;;5020103;28;20029;-79
2024/03/29 07:28:02;;;;;;;3.30;2.00;;;7.40;67.40;;;;;;5033588;28;20030;-81
2024/03/29 07:30:55;;;;;;;6.47;2.22;;;7.00;99.90;;;;;;5041754;28;20025;-82
2024/03/29 07:33:42;;;;;;;5.68;2.78;;;6.80;99.90;;;;;;5043295;28;20051;-80
2024/03/29 07:36:35;;;;;;;7.45;4.30;;;6.70;99.90;;;;;;5026864;28;20102;-80
2024/03/29 07:39:22;;;;;;;3.00;2.08;;;6.60;99.90;;;;;;5027333;28;20053;-84
2024/03/29 07:42:16;;;;;;;3.13;2.22;;;6.50;99.90;;;;;;5042976;28;20029;-81
2024/03/29 07:45:04;;;;;;;4.78;2.78;;;6.20;99.90;;;;;;5028975;28;20068;-82
2024/03/29 07:47:52;;;;;;;5.38;2.50;;;6.00;99.90;;;;;;5033551;28;20034;-81
2024/03/29 07:50:39;;;;;;;6.75;3.42;;;5.90;99.90;;;;;;5034981;28;20041;-81
2024/03/29 07:53:25;;;;;;;3.92;2.03;;;5.80;99.90;;;;;;5036318;28;20033;-81
2024/03/29 07:56:11;;;;;;;2.67;2.05;;;6.00;99.90;;;;;;5033338;28;20091;-81
2024/03/29 07:58:58;;;;;;;2.90;1.85;;;6.20;99.90;;;;;;5030845;28;20037;-82
2024/03/29 08:01:44;;;;;;;3.70;1.80;;;6.40;99.90;;;;;;5014375;28;20045;-84
2024/03/29 08:04:32;;;;;;;2.42;1.50;;;6.60;1.00;;;;;;5031501;28;20042;-84
2024/03/29 08:07:18;;;;;;;3.17;1.80;;;6.60;1.00;;;;;;5031593;28;20037;-82
2024/03/29 08:10:07;;;;;;;2.67;1.60;;;6.80;1.00;;;;;;5032931;28;20041;-83
2024/03/29 08:12:53;;;;;;;3.95;2.22;;;6.80;1.00;;;;;;5023491;28;20033;-80
2024/03/29 08:15:39;;;;;;;4.88;2.80;;;6.80;1.00;;;;;;5037862;28;20103;-82
2024/03/29 08:18:27;;;;;;;1.83;1.60;;;6.90;1.00;;;;;;5024538;28;20045;-79
2024/03/29 08:21:14;;;;;;;5.07;1.98;;;6.90;1.00;;;;;;5022915;28;20052;-83
2024/03/29 08:24:04;;;;;;;1.80;1.60;;;6.90;1.00;;;;;;5028622;28;20145;-83
2024/03/29 08:26:51;;;;;;;5.20;2.05;;;6.80;44.00;;;;;;5028595;28;20045;-82
2024/03/29 08:29:40;;;;;;;2.80;1.95;;;6.80;99.90;;;;;;5026885;28;20041;-83
2024/03/29 08:32:27;;;;;;;3.05;2.40;;;6.80;99.90;;;;;;5026927;28;20044;-81
2024/03/29 08:35:13;;;;;;;4.30;3.20;;;6.80;99.90;;;;;;5027157;28;20056;-84
2024/03/29 08:38:03;;;;;;;4.95;3.10;;;6.90;99.90;;;;;;5024724;28;20107;-82
2024/03/29 08:40:51;;;;;;;12.05;5.38;;;7.10;1.00;;;;;;5012760;28;20104;-81
2024/03/29 08:43:40;;;;;;;5.57;3.33;;;7.10;1.00;;;;;;5025749;28;20049;-84
2024/03/29 08:46:28;;;;;;;4.32;2.47;;;7.10;15.70;;;;;;5029823;28;20060;-84
2024/03/29 08:49:14;;;;;;;4.13;2.03;;;7.20;38.40;;;;;;5033003;28;20060;-80
2024/03/29 08:52:04;;;;;;;3.60;2.00;;;7.20;99.90;;;;;;5034397;28;20037;-78
2024/03/29 08:54:51;;;;;;;9.68;4.65;;;7.30;99.90;;;;;;5042940;28;20045;-83
2024/03/29 08:57:38;;;;;;;5.20;2.28;;;7.40;99.90;;;;;;5031754;28;20053;-82
2024/03/29 09:00:29;;;;;;;4.72;2.38;;;7.60;1.00;;;;;;5031035;28;20040;-83
2024/03/29 09:03:18;;;;;;;4.35;2.83;;;7.80;19.90;;;;;;5023040;28;20033;-79
2024/03/29 09:06:05;;;;;;;4.15;1.98;;;7.80;79.30;;;;;;5042525;28;20092;-82
2024/03/29 09:08:52;;;;;;;3.60;1.88;;;7.90;99.90;;;;;;5023406;28;20028;-85
2024/03/29 09:11:40;;;;;;;2.70;1.95;;;8.10;99.90;;;;;;5035309;28;20059;-83
2024/03/29 09:14:27;;;;;;;4.18;2.03;;;8.30;99.90;;;;;;5022534;28;20044;-82
2024/03/29 09:17:14;;;;;;;3.38;2.25;;;8.30;99.90;;;;;;5035346;28;20030;-84
2024/03/29 09:20:04;;;;;;;2.95;1.92;;;8.40;99.90;;;;;;5033831;28;20037;-83
2024/03/29 09:22:52;;;;;;;3.40;1.50;;;8.30;41.10;;;;;;5033474;28;20042;-84
2024/03/29 09:25:41;;;;;;;5.20;2.03;;;8.30;13.60;;;;;;5033405;28;20037;-83
2024/03/29 09:28:28;;;;;;;2.63;1.75;;;8.10;1.00;;;;;;5033958;28;20041;-85
2024/03/29 09:31:16;;;;;;;6.40;2.00;;;8.00;62.30;;;;;;5032235;28;20545;-82
2024/03/29 09:34:03;;;;;;;1.88;1.50;;;8.10;99.90;;;;;;5027644;28;20069;-84
2024/03/29 09:36:50;;;;;;;6.47;2.67;;;8.20;99.90;;;;;;5033310;28;20040;-82
2024/03/29 09:39:36;;;;;;;5.40;2.63;;;8.40;99.90;;;;;;5040079;28;20054;-80
2024/03/29 09:42:26;;;;;;;4.70;3.20;;;8.80;99.90;;;;;;5025902;28;20105;-83
2024/03/29 09:45:14;;;;;;;2.13;1.75;;;9.20;1.00;;;;;;5029972;28;20033;-81
2024/03/29 09:48:05;;;;;;;1.65;1.42;;;9.90;99.90;;;;;;5033231;28;20049;-83
2024/03/29 09:50:58;;;;;;;3.50;1.90;;;10.30;1.00;;;;;;5027052;28;20051;-84
2024/03/29 09:53:47;;;;;;;2.42;1.90;;;10.40;99.90;;;;;;5027835;28;20046;-83
2024/03/29 09:56:34;;;;;;;5.22;2.97;;;10.40;99.40;;;;;;5024992;28;20046;-83
2024/03/29 09:59:20;;;;;;;4.30;2.30;;;10.40;1.00;;;;;;5025474;28;20053;-84
2024/03/29 10:02:33;;;;;;;5.97;3.83;;;10.50;1.00;;;;;;5025353;28;20083;-85
2024/03/29 10:05:25;;;;;;;5.20;1.80;;;10.90;1.00;;;;;;5025889;28;20048;-82
2024/03/29 10:08:12;;;;;;;3.25;1.60;;;11.30;99.90;;;;;;5025221;28;20038;-85
2024/03/29 10:10:58;;;;;;;2.63;1.83;;;11.40;99.90;;;;;;5019222;28;20054;-83
2024/03/29 10:13:45;;;;;;;2.22;1.45;;;11.80;99.90;;;;;;5029052;28;20045;-84
2024/03/29 10:16:38;;;;;;;2.58;1.77;;;12.70;1.00;;;;;;5026237;28;20049;-83
2024/03/29 10:19:25;;;;;;;2.60;1.50;;;13.60;99.90;;;;;;4949280;28;2075244;-84
2024/03/29 10:22:13;;;;;;;1.50;1.38;;;14.40;99.90;;;;;;5021379;28;20530;-85
2024/03/29 10:25:00;;;;;;;3.88;1.58;;;14.70;1.00;;;;;;5026462;28;20105;-84
2024/03/29 10:27:47;;;;;;;2.60;1.10;;;15.10;1.00;;;;;;5030479;28;20061;-81
2024/03/29 10:30:35;;;;;;;4.07;1.30;;;15.10;99.90;;;;;;5029808;28;20041;-83
2024/03/29 10:33:22;;;;;;;2.42;1.30;;;14.40;99.90;;;;;;5030191;28;20154;-85
2024/03/29 10:36:12;;;;;;;1.77;1.00;;;14.40;99.90;;;;;;5028370;28;20052;-82
2024/03/29 10:39:00;;;;;;;2.40;1.23;;;15.20;99.90;;;;;;5026484;28;20060;-83
2024/03/29 10:41:51;;;;;;;4.07;1.58;;;15.80;99.90;;;;;;5014145;28;20091;-84
2024/03/29 10:44:40;;;;;;;1.77;1.52;;;16.00;99.90;;;;;;5027638;28;20052;-81
2024/03/29 10:47:31;;;;;;;3.70;1.80;;;15.90;99.90;;;;;;5030328;28;20042;-82
2024/03/29 10:50:21;;;;;;;1.75;1.40;;;15.10;99.90;;;;;;5017149;28;20029;-82
2024/03/29 10:53:13;;;;;;;2.83;1.40;;;14.70;99.90;;;;;;5017582;28;20140;-83
2024/03/29 10:56:00;;;;;;;2.83;1.38;;;14.60;99.90;;;;;;5019308;28;20046;-83
2024/03/29 10:58:51;;;;;;;1.83;1.10;;;15.00;99.90;;;;;;5022241;28;20045;-83
2024/03/29 11:01:44;;;;;;;1.25;1.00;;;15.80;99.90;;;;;;5013456;28;20057;-82
2024/03/29 11:04:36;;;;;;;1.58;1.15;;;16.10;99.90;;;;;;5022197;28;20045;-83
2024/03/29 11:07:23;;;;;;;1.75;1.02;;;15.90;99.90;;;;;;5012905;28;20460;-82
2024/03/29 11:10:19;;;;;;;1.73;0.90;;;15.80;99.90;;;;;;5013365;28;20041;-80
2024/03/29 11:13:28;;;;;;;1.33;0.95;;;16.20;99.90;;;;;;5015511;28;20064;-81
2024/03/29 11:16:19;;;;;;;3.72;1.40;;;16.70;99.90;;;;;;5015285;28;20049;-81
2024/03/29 11:19:06;;;;;;;3.22;1.35;;;17.20;99.90;;;;;;5014165;28;20046;-81
2024/03/29 11:21:53;;;;;;;2.83;1.05;;;17.80;76.80;;;;;;5017662;28;20132;-84
2024/03/29 11:24:41;;;;;;;1.05;0.95;;;18.00;79.00;;;;;;4996870;28;20046;-81
2024/03/29 11:27:32;;;;;;;2.45;1.58;;;18.10;59.70;;;;;;5009334;28;20044;-85
2024/03/29 11:30:18;;;;;;;2.20;1.00;;;18.70;28.20;;;;;;5025160;28;20044;-81
2024/03/29 11:33:05;;;;;;;2.35;1.13;;;18.80;1.00;;;;;;4997610;28;20050;-85
2024/03/29 11:35:51;;;;;;;0.45;0.45;;;19.00;1.00;;;;;;5016195;28;20049;-82
2024/03/29 11:38:39;;;;;;;2.78;1.23;;;18.10;1.00;;;;;;5014847;28;20527;-83
2024/03/29 11:41:27;;;;;;;1.73;0.73;;;17.10;1.00;;;;;;5019946;28;20102;-84
2024/03/29 11:44:13;;;;;;;1.05;0.73;;;16.60;1.00;;;;;;5019520;28;20045;-82
2024/03/29 11:47:06;;;;;;;2.85;0.90;;;16.30;1.00;;;;;;5014673;28;20044;-83
2024/03/29 11:49:57;;;;;;;2.58;1.90;;;16.00;1.00;;;;;;5014601;28;20113;-82
2024/03/29 11:52:43;;;;;;;3.08;0.95;;;15.90;1.00;;;;;;5000117;28;20048;-81
2024/03/29 11:55:30;;;;;;;1.73;1.10;;;16.10;1.00;;;;;;4998920;28;20052;-83
2024/03/29 11:58:17;;;;;;;1.75;0.95;;;16.00;1.00;;;;;;5012981;28;20217;-84
2024/03/29 12:01:05;;;;;;;2.70;1.00;;;16.10;1.00;;;;;;5018226;28;20053;-80
2024/03/29 12:03:52;;;;;;;0.95;0.88;;;16.60;1.00;;;;;;5011978;28;20056;-82
2024/03/29 12:06:40;;;;;;;1.88;0.80;;;17.50;1.00;;;;;;5017473;28;20437;-82
2024/03/29 12:09:27;;;;;;;1.33;0.90;;;17.50;1.00;;;;;;5022370;28;20072;-82
2024/03/29 12:12:17;;;;;;;2.35;0.98;;;17.30;1.00;;;;;;5008559;28;20053;-82
2024/03/29 12:15:05;;;;;;;1.95;0.90;;;17.20;1.00;;;;;;5008783;28;20046;-83
2024/03/29 12:17:57;;;;;;;2.85;0.90;;;17.10;1.00;;;;;;5018280;28;20053;-82
2024/03/29 12:20:49;;;;;;;3.72;1.67;;;17.10;1.00;;;;;;4999808;28;20418;-82
2024/03/29 12:23:52;;;;;;;2.00;1.20;;;17.10;1.00;;;;;;5013936;28;20049;-82
2024/03/29 12:26:41;;;;;;;21.83;13.25;;;17.10;1.00;;;;;;5019019;28;20054;-84
2024/03/29 12:29:28;;;;;;;1.85;1.42;;;17.20;1.00;;;;;;5013342;28;20045;-80
2024/03/29 12:32:23;;;;;;;1.67;0.80;;;17.40;1.00;;;;;;5015752;28;20041;-81
2024/03/29 12:35:12;;;;;;;2.95;0.85;;;17.60;1.00;;;;;;5013646;28;20045;-83
2024/03/29 12:38:04;;;;;;;1.25;0.80;;;18.00;1.00;;;;;;5014909;28;20045;-81
2024/03/29 12:40:51;;;;;;;0.98;0.75;;;18.60;1.00;;;;;;5017626;28;20049;-82
2024/03/29 12:43:37;;;;;;;1.15;0.70;;;19.40;1.00;;;;;;5008285;28;20060;-82
2024/03/29 12:46:26;;;;;;;0.70;0.70;;;19.80;1.00;;;;;;5012579;28;20073;-83
2024/03/29 12:49:14;;;;;;;2.10;1.08;;;19.40;1.00;;;;;;5015242;28;20392;-82
2024/03/29 12:52:04;;;;;;;1.27;0.73;;;18.80;1.00;;;;;;5014063;28;20041;-81
2024/03/29 12:54:51;;;;;;;1.67;1.13;;;18.10;1.00;;;;;;5025120;28;20049;-84
2024/03/29 12:57:42;;;;;;;4.05;1.60;;;17.80;1.00;;;;;;5012531;28;20139;-84
2024/03/29 13:00:29;;;;;;;1.33;1.00;;;17.60;1.00;;;;;;5013831;28;20127;-84
2024/03/29 13:03:16;;;;;;;1.58;1.00;;;18.70;1.00;;;;;;5022162;28;20053;-83
2024/03/29 13:06:05;;;;;;;1.23;0.70;;;20.50;1.00;;;;;;5015840;28;20049;-82
2024/03/29 13:08:53;;;;;;;0.93;0.63;;;20.70;1.00;;;;;;5013807;28;20117;-84
2024/03/29 13:11:41;;;;;;;2.92;0.70;;;21.20;1.00;;;;;;5019422;28;20521;-82
2024/03/29 13:14:27;;;;;;;2.67;1.25;;;21.90;1.00;;;;;;5013310;28;20053;-81
2024/03/29 13:17:13;;;;;;;1.58;0.73;;;22.20;1.00;;;;;;4999600;28;20037;-85
2024/03/29 13:20:00;;;;;;;2.40;0.90;;;22.10;1.00;;;;;;5000422;28;20049;-81
2024/03/29 13:22:48;;;;;;;1.50;0.50;;;21.40;1.00;;;;;;5013244;28;20056;-85
2024/03/29 13:25:36;;;;;;;2.53;0.60;;;20.60;1.00;;;;;;5012517;28;20508;-82
2024/03/29 13:28:22;;;;;;;1.20;0.70;;;21.50;1.00;;;;;;4999166;28;20048;-83
2024/03/29 13:31:09;;;;;;;1.20;0.60;;;21.50;1.00;;;;;;5013785;28;20379;-83
2024/03/29 13:34:03;;;;;;;4.55;1.00;;;22.30;1.00;;;;;;5020427;28;20055;-80
2024/03/29 13:36:50;;;;;;;1.27;0.68;;;22.10;1.00;;;;;;5011568;28;20401;-82
2024/03/29 13:39:36;;;;;;;3.38;1.08;;;22.20;1.00;;;;;;5002127;28;20042;-84
2024/03/29 13:42:23;;;;;;;2.47;0.75;;;23.00;1.00;;;;;;5008435;28;20164;-82
2024/03/29 13:45:10;;;;;;;2.75;0.43;;;24.00;1.00;;;;;;5031026;28;20047;-81
2024/03/29 13:47:57;;;;;;;1.05;0.50;;;23.70;1.00;;;;;;5022612;28;20067;-83
2024/03/29 13:50:44;;;;;;;2.05;0.60;;;23.70;1.00;;;;;;5004295;28;20042;-82
2024/03/29 13:53:34;;;;;;;0.88;0.68;;;24.00;1.00;;;;;;5007175;28;20189;-81
2024/03/29 13:56:22;;;;;;;1.58;0.80;;;24.40;1.00;;;;;;5004256;28;20076;-82
2024/03/29 13:59:10;;;;;;;0.73;0.60;;;24.10;1.00;;;;;;5020007;28;20108;-84
2024/03/29 14:01:56;;;;;;;0.88;0.55;;;23.60;1.00;;;;;;5016559;28;20053;-82
2024/03/29 14:04:44;;;;;;;2.47;0.60;;;23.00;1.00;;;;;;5014371;28;20051;-83
2024/03/29 14:07:30;;;;;;;0.98;0.70;;;22.00;1.00;;;;;;5015832;28;20037;-82
2024/03/29 14:10:18;;;;;;;1.45;0.80;;;22.50;1.00;;;;;;5014952;28;20046;-81
2024/03/29 14:13:04;;;;;;;2.17;0.60;;;22.60;1.00;;;;;;5016525;28;20037;-81
2024/03/29 14:15:52;;;;;;;1.63;0.55;;;22.40;1.00;;;;;;5014366;28;20053;-81
2024/03/29 14:18:39;;;;;;;1.48;0.90;;;22.60;1.00;;;;;;5006941;28;20506;-81
2024/03/29 14:21:25;;;;;;;2.67;0.85;;;23.10;1.00;;;;;;5013148;28;20109;-82
2024/03/29 14:24:11;;;;;;;2.10;0.82;;;22.90;1.00;;;;;;5020653;28;20045;-82
2024/03/29 14:27:00;;;;;;;2.35;1.05;;;22.90;1.00;;;;;;5019174;28;20046;-82
2024/03/29 14:29:47;;;;;;;2.78;0.98;;;23.20;1.00;;;;;;5016104;28;20038;-83
2024/03/29 14:32:33;;;;;;;1.45;0.93;;;23.10;1.00;;;;;;5018509;28;20045;-82
2024/03/29 14:35:20;;;;;;;3.60;1.60;;;23.00;1.00;;;;;;5013536;28;20056;-84
2024/03/29 14:38:07;;;;;;;1.73;0.93;;;22.90;1.00;;;;;;5013885;28;20045;-81
2024/03/29 14:40:54;;;;;;;1.55;0.70;;;23.00;1.00;;;;;;4992927;28;20111;-84
2024/03/29 14:43:41;;;;;;;1.17;0.85;;;23.20;1.00;;;;;;5012764;28;20053;-81
2024/03/29 14:46:28;;;;;;;1.50;0.90;;;23.60;1.00;;;;;;5014598;28;20060;-82
2024/03/29 14:49:17;;;;;;;1.10;0.80;;;23.30;1.00;;;;;;5014470;28;20125;-81
2024/03/29 14:52:04;;;;;;;0.95;0.68;;;22.70;1.00;;;;;;5008384;28;20042;-82
2024/03/29 14:54:52;;;;;;;2.97;1.00;;;21.60;1.00;;;;;;5002783;28;20045;-80